sensor_id;sensor_type;location;lat;lon;timestamp;temperature;humidity
8109;DHT22;4097;47.812;12.374;2022-12-20T00:01:08;0.60;99.90
8109;DHT22;4097;47.812;12.374;2022-12-20T00:03:36;0.70;99.90
8109;DHT22;4097;47.812;12.374;2022-12-20T00:06:03;0.70;99.90
8109;DHT22;4097;47.812;12.374;2022-12-20T00:08:34;0.80;99.90
8109;DHT22;4097;47.812;12.374;2022-12-20T00:11:02;0.80;99.90
8109;DHT22;4097;47.812;12.374;2022-12-20T00:13:30;0.90;99.90
8109;DHT22;4097;47.812;12.374;2022-12-20T00:16:10;0.80;99.90
8109;DHT22;4097;47.812;12.374;2022-12-20T00:18:38;0.90;99.90
8109;DHT22;4097;47.812;12.374;2022-12-20T00:21:07;0.90;99.90
8109;DHT22;4097;47.812;12.374;2022-12-20T00:23:36;0.90;99.90
8109;DHT22;4097;47.812;12.374;2022-12-20T00:26:04;0.80;99.90
8109;DHT22;4097;47.812;12.374;2022-12-20T00:28:32;0.80;99.90
8109;DHT22;4097;47.812;12.374;2022-12-20T00:31:00;0.80;99.90
8109;DHT22;4097;47.812;12.374;2022-12-20T00:33:29;0.80;99.90
8109;DHT22;4097;47.812;12.374;2022-12-20T00:35:56;0.90;99.90
8109;DHT22;4097;47.812;12.374;2022-12-20T00:38:24;0.80;99.90
8109;DHT22;4097;47.812;12.374;2022-12-20T00:40:59;0.80;99.90
8109;DHT22;4097;47.812;12.374;2022-12-20T00:43:26;0.90;99.90
8109;DHT22;4097;47.812;12.374;2022-12-20T00:45:54;0.90;99.90
8109;DHT22;4097;47.812;12.374;2022-12-20T00:48:22;0.90;99.90
8109;DHT22;4097;47.812;12.374;2022-12-20T00:51:00;1.00;99.90
8109;DHT22;4097;47.812;12.374;2022-12-20T00:53:28;1.00;99.90
8109;DHT22;4097;47.812;12.374;2022-12-20T00:55:56;1.00;99.90
8109;DHT22;4097;47.812;12.374;2022-12-20T00:58:23;1.00;99.90
8109;DHT22;4097;47.812;12.374;2022-12-20T01:00:50;1.00;99.90
8109;DHT22;4097;47.812;12.374;2022-12-20T01:03:21;1.00;99.90
8109;DHT22;4097;47.812;12.374;2022-12-20T01:05:50;1.00;99.90
8109;DHT22;4097;47.812;12.374;2022-12-20T01:08:19;1.00;99.90
8109;DHT22;4097;47.812;12.374;2022-12-20T01:10:47;1.00;99.90
8109;DHT22;4097;47.812;12.374;2022-12-20T01:13:23;1.00;99.90
8109;DHT22;4097;47.812;12.374;2022-12-20T01:15:50;1.00;99.90
8109;DHT22;4097;47.812;12.374;2022-12-20T01:18:17;0.90;99.90
8109;DHT22;4097;47.812;12.374;2022-12-20T01:20:44;0.90;99.90
8109;DHT22;4097;47.812;12.374;2022-12-20T01:23:12;0.90;99.90
8109;DHT22;4097;47.812;12.374;2022-12-20T01:25:41;1.00;99.90
8109;DHT22;4097;47.812;12.374;2022-12-20T01:28:08;1.00;99.90
8109;DHT22;4097;47.812;12.374;2022-12-20T01:30:39;1.00;99.90
8109;DHT22;4097;47.812;12.374;2022-12-20T01:33:07;1.00;99.90
8109;DHT22;4097;47.812;12.374;2022-12-20T01:35:34;1.00;99.90
8109;DHT22;4097;47.812;12.374;2022-12-20T01:38:01;0.90;99.90
8109;DHT22;4097;47.812;12.374;2022-12-20T01:40:28;0.90;99.90
8109;DHT22;4097;47.812;12.374;2022-12-20T01:42:57;0.90;99.90
8109;DHT22;4097;47.812;12.374;2022-12-20T01:45:26;0.90;99.90
8109;DHT22;4097;47.812;12.374;2022-12-20T01:47:54;0.90;99.90
8109;DHT22;4097;47.812;12.374;2022-12-20T01:50:22;0.90;99.90
8109;DHT22;4097;47.812;12.374;2022-12-20T01:52:49;0.90;99.90
8109;DHT22;4097;47.812;12.374;2022-12-20T01:55:21;0.90;99.90
8109;DHT22;4097;47.812;12.374;2022-12-20T01:57:51;1.00;99.90
8109;DHT22;4097;47.812;12.374;2022-12-20T02:00:22;1.00;99.90
8109;DHT22;4097;47.812;12.374;2022-12-20T02:02:52;1.00;99.90
8109;DHT22;4097;47.812;12.374;2022-12-20T02:05:21;1.00;99.90
8109;DHT22;4097;47.812;12.374;2022-12-20T02:07:51;1.00;99.90
8109;DHT22;4097;47.812;12.374;2022-12-20T02:10:21;1.00;99.90
8109;DHT22;4097;47.812;12.374;2022-12-20T02:12:56;0.90;99.90
8109;DHT22;4097;47.812;12.374;2022-12-20T02:15:38;1.00;99.90
8109;DHT22;4097;47.812;12.374;2022-12-20T02:18:15;1.00;99.90
8109;DHT22;4097;47.812;12.374;2022-12-20T02:20:53;1.00;99.90
8109;DHT22;4097;47.812;12.374;2022-12-20T02:23:58;1.00;99.90
8109;DHT22;4097;47.812;12.374;2022-12-20T02:26:45;1.00;99.90
8109;DHT22;4097;47.812;12.374;2022-12-20T02:29:23;1.00;99.90
8109;DHT22;4097;47.812;12.374;2022-12-20T02:31:59;1.00;99.90
8109;DHT22;4097;47.812;12.374;2022-12-20T02:34:28;1.00;99.90
8109;DHT22;4097;47.812;12.374;2022-12-20T02:41:54;1.10;99.90
8109;DHT22;4097;47.812;12.374;2022-12-20T02:44:25;1.10;99.90
8109;DHT22;4097;47.812;12.374;2022-12-20T02:47:17;1.10;99.90
8109;DHT22;4097;47.812;12.374;2022-12-20T02:49:45;1.10;99.90
8109;DHT22;4097;47.812;12.374;2022-12-20T02:52:14;1.20;99.90
8109;DHT22;4097;47.812;12.374;2022-12-20T02:54:45;1.10;99.90
8109;DHT22;4097;47.812;12.374;2022-12-20T02:57:17;1.10;99.90
8109;DHT22;4097;47.812;12.374;2022-12-20T02:59:49;1.10;99.90
8109;DHT22;4097;47.812;12.374;2022-12-20T03:02:19;1.10;99.90
8109;DHT22;4097;47.812;12.374;2022-12-20T03:04:48;1.10;99.90
8109;DHT22;4097;47.812;12.374;2022-12-20T03:07:18;1.10;99.90
8109;DHT22;4097;47.812;12.374;2022-12-20T03:09:45;1.20;99.90
8109;DHT22;4097;47.812;12.374;2022-12-20T03:12:13;1.20;99.90
8109;DHT22;4097;47.812;12.374;2022-12-20T03:14:41;1.20;99.90
8109;DHT22;4097;47.812;12.374;2022-12-20T03:17:09;1.20;99.90
8109;DHT22;4097;47.812;12.374;2022-12-20T03:19:38;1.20;99.90
8109;DHT22;4097;47.812;12.374;2022-12-20T03:22:05;1.10;99.90
8109;DHT22;4097;47.812;12.374;2022-12-20T03:24:32;1.10;99.90
8109;DHT22;4097;47.812;12.374;2022-12-20T03:27:20;1.20;99.90
8109;DHT22;4097;47.812;12.374;2022-12-20T03:30:14;1.10;99.90
8109;DHT22;4097;47.812;12.374;2022-12-20T03:32:41;1.20;99.90
8109;DHT22;4097;47.812;12.374;2022-12-20T03:35:10;1.20;99.90
8109;DHT22;4097;47.812;12.374;2022-12-20T03:37:37;1.20;99.90
8109;DHT22;4097;47.812;12.374;2022-12-20T03:40:05;1.10;99.90
8109;DHT22;4097;47.812;12.374;2022-12-20T03:42:33;1.00;99.90
8109;DHT22;4097;47.812;12.374;2022-12-20T03:45:00;1.10;99.90
8109;DHT22;4097;47.812;12.374;2022-12-20T03:47:27;1.10;99.90
8109;DHT22;4097;47.812;12.374;2022-12-20T03:49:54;1.10;99.90
8109;DHT22;4097;47.812;12.374;2022-12-20T03:52:23;1.10;99.90
8109;DHT22;4097;47.812;12.374;2022-12-20T03:54:50;1.10;99.90
8109;DHT22;4097;47.812;12.374;2022-12-20T03:57:19;1.00;99.90
8109;DHT22;4097;47.812;12.374;2022-12-20T03:59:46;1.00;99.90
8109;DHT22;4097;47.812;12.374;2022-12-20T04:02:13;1.00;99.90
8109;DHT22;4097;47.812;12.374;2022-12-20T04:04:41;1.00;99.90
8109;DHT22;4097;47.812;12.374;2022-12-20T04:12:06;0.90;99.90
8109;DHT22;4097;47.812;12.374;2022-12-20T04:14:33;0.90;99.90
8109;DHT22;4097;47.812;12.374;2022-12-20T04:17:00;0.90;99.90
8109;DHT22;4097;47.812;12.374;2022-12-20T04:19:27;0.90;99.90
8109;DHT22;4097;47.812;12.374;2022-12-20T04:21:55;0.90;99.90
8109;DHT22;4097;47.812;12.374;2022-12-20T04:27:01;0.80;99.90
8109;DHT22;4097;47.812;12.374;2022-12-20T04:29:43;0.80;99.90
8109;DHT22;4097;47.812;12.374;2022-12-20T04:32:10;0.90;99.90
8109;DHT22;4097;47.812;12.374;2022-12-20T04:34:37;0.90;99.90
8109;DHT22;4097;47.812;12.374;2022-12-20T04:37:04;0.90;99.90
8109;DHT22;4097;47.812;12.374;2022-12-20T04:39:54;0.90;99.90
8109;DHT22;4097;47.812;12.374;2022-12-20T04:42:22;0.90;99.90
8109;DHT22;4097;47.812;12.374;2022-12-20T04:44:52;0.90;99.90
8109;DHT22;4097;47.812;12.374;2022-12-20T04:47:53;0.80;99.90
8109;DHT22;4097;47.812;12.374;2022-12-20T04:52:52;0.80;99.90
8109;DHT22;4097;47.812;12.374;2022-12-20T04:55:39;0.90;99.90
8109;DHT22;4097;47.812;12.374;2022-12-20T04:58:06;0.90;99.90
8109;DHT22;4097;47.812;12.374;2022-12-20T05:00:35;0.90;99.90
8109;DHT22;4097;47.812;12.374;2022-12-20T05:03:02;0.70;99.90
8109;DHT22;4097;47.812;12.374;2022-12-20T05:05:30;0.70;99.90
8109;DHT22;4097;47.812;12.374;2022-12-20T05:07:57;0.70;99.90
8109;DHT22;4097;47.812;12.374;2022-12-20T05:10:24;0.70;99.90
8109;DHT22;4097;47.812;12.374;2022-12-20T05:12:51;0.60;99.90
8109;DHT22;4097;47.812;12.374;2022-12-20T05:15:19;0.60;99.90
8109;DHT22;4097;47.812;12.374;2022-12-20T05:17:47;0.60;99.90
8109;DHT22;4097;47.812;12.374;2022-12-20T05:20:14;0.60;99.90
8109;DHT22;4097;47.812;12.374;2022-12-20T05:22:41;0.60;99.90
8109;DHT22;4097;47.812;12.374;2022-12-20T05:25:26;0.60;99.90
8109;DHT22;4097;47.812;12.374;2022-12-20T05:28:11;0.50;99.90
8109;DHT22;4097;47.812;12.374;2022-12-20T05:30:38;0.60;99.90
8109;DHT22;4097;47.812;12.374;2022-12-20T05:33:09;0.60;99.90
8109;DHT22;4097;47.812;12.374;2022-12-20T05:35:39;0.60;99.90
8109;DHT22;4097;47.812;12.374;2022-12-20T05:38:06;0.60;99.90
8109;DHT22;4097;47.812;12.374;2022-12-20T05:40:33;0.70;99.90
8109;DHT22;4097;47.812;12.374;2022-12-20T05:43:01;0.70;99.90
8109;DHT22;4097;47.812;12.374;2022-12-20T05:45:28;0.80;99.90
8109;DHT22;4097;47.812;12.374;2022-12-20T05:47:55;0.80;99.90
8109;DHT22;4097;47.812;12.374;2022-12-20T05:50:24;0.80;99.90
8109;DHT22;4097;47.812;12.374;2022-12-20T05:52:51;0.90;99.90
8109;DHT22;4097;47.812;12.374;2022-12-20T05:55:18;0.90;99.90
8109;DHT22;4097;47.812;12.374;2022-12-20T05:57:46;0.90;99.90
8109;DHT22;4097;47.812;12.374;2022-12-20T06:00:13;1.00;99.90
8109;DHT22;4097;47.812;12.374;2022-12-20T06:02:41;1.00;99.90
8109;DHT22;4097;47.812;12.374;2022-12-20T06:05:09;1.00;99.90
8109;DHT22;4097;47.812;12.374;2022-12-20T06:07:37;1.00;99.90
8109;DHT22;4097;47.812;12.374;2022-12-20T06:10:05;1.00;99.90
8109;DHT22;4097;47.812;12.374;2022-12-20T06:12:33;1.10;99.90
8109;DHT22;4097;47.812;12.374;2022-12-20T06:15:00;1.10;99.90
8109;DHT22;4097;47.812;12.374;2022-12-20T06:17:27;1.10;99.90
8109;DHT22;4097;47.812;12.374;2022-12-20T06:19:55;1.10;99.90
8109;DHT22;4097;47.812;12.374;2022-12-20T06:22:22;1.10;99.90
8109;DHT22;4097;47.812;12.374;2022-12-20T06:24:51;1.10;99.90
8109;DHT22;4097;47.812;12.374;2022-12-20T06:27:18;1.10;99.90
8109;DHT22;4097;47.812;12.374;2022-12-20T06:29:47;1.10;99.90
8109;DHT22;4097;47.812;12.374;2022-12-20T06:32:19;1.10;99.90
8109;DHT22;4097;47.812;12.374;2022-12-20T06:34:47;1.10;99.90
8109;DHT22;4097;47.812;12.374;2022-12-20T06:37:14;1.20;99.90
8109;DHT22;4097;47.812;12.374;2022-12-20T06:39:42;1.10;99.90
8109;DHT22;4097;47.812;12.374;2022-12-20T06:42:12;1.20;99.90
8109;DHT22;4097;47.812;12.374;2022-12-20T06:44:39;1.20;99.90
8109;DHT22;4097;47.812;12.374;2022-12-20T06:47:06;1.20;99.90
8109;DHT22;4097;47.812;12.374;2022-12-20T06:49:33;1.30;99.90
8109;DHT22;4097;47.812;12.374;2022-12-20T06:52:00;1.30;99.90
8109;DHT22;4097;47.812;12.374;2022-12-20T06:54:27;1.20;99.90
8109;DHT22;4097;47.812;12.374;2022-12-20T06:56:54;1.20;99.90
8109;DHT22;4097;47.812;12.374;2022-12-20T06:59:23;1.20;99.90
8109;DHT22;4097;47.812;12.374;2022-12-20T07:01:50;1.30;99.90
8109;DHT22;4097;47.812;12.374;2022-12-20T07:04:17;1.30;99.90
8109;DHT22;4097;47.812;12.374;2022-12-20T07:06:44;1.30;99.90
8109;DHT22;4097;47.812;12.374;2022-12-20T07:09:11;1.30;99.90
8109;DHT22;4097;47.812;12.374;2022-12-20T07:11:38;1.30;99.90
8109;DHT22;4097;47.812;12.374;2022-12-20T07:14:05;1.30;99.90
8109;DHT22;4097;47.812;12.374;2022-12-20T07:16:34;1.40;99.90
8109;DHT22;4097;47.812;12.374;2022-12-20T07:19:01;1.30;99.90
8109;DHT22;4097;47.812;12.374;2022-12-20T07:21:28;1.30;99.90
8109;DHT22;4097;47.812;12.374;2022-12-20T07:23:55;1.30;99.90
8109;DHT22;4097;47.812;12.374;2022-12-20T07:26:22;1.40;99.90
8109;DHT22;4097;47.812;12.374;2022-12-20T07:28:49;1.30;99.90
8109;DHT22;4097;47.812;12.374;2022-12-20T07:31:16;1.30;99.90
8109;DHT22;4097;47.812;12.374;2022-12-20T07:33:45;1.40;99.90
8109;DHT22;4097;47.812;12.374;2022-12-20T07:36:12;1.40;99.90
8109;DHT22;4097;47.812;12.374;2022-12-20T07:38:40;1.50;99.90
8109;DHT22;4097;47.812;12.374;2022-12-20T07:41:07;1.50;99.90
8109;DHT22;4097;47.812;12.374;2022-12-20T07:43:36;1.40;99.90
8109;DHT22;4097;47.812;12.374;2022-12-20T07:46:04;1.40;99.90
8109;DHT22;4097;47.812;12.374;2022-12-20T07:48:32;1.40;99.90
8109;DHT22;4097;47.812;12.374;2022-12-20T07:51:05;1.50;99.90
8109;DHT22;4097;47.812;12.374;2022-12-20T07:53:34;1.50;99.90
8109;DHT22;4097;47.812;12.374;2022-12-20T07:56:05;1.60;99.90
8109;DHT22;4097;47.812;12.374;2022-12-20T07:58:33;1.60;99.90
8109;DHT22;4097;47.812;12.374;2022-12-20T08:01:01;1.60;99.90
8109;DHT22;4097;47.812;12.374;2022-12-20T08:03:33;1.60;99.90
8109;DHT22;4097;47.812;12.374;2022-12-20T08:06:05;1.60;99.90
8109;DHT22;4097;47.812;12.374;2022-12-20T08:08:35;1.60;99.90
8109;DHT22;4097;47.812;12.374;2022-12-20T08:11:03;1.70;99.90
8109;DHT22;4097;47.812;12.374;2022-12-20T08:13:31;1.70;99.90
8109;DHT22;4097;47.812;12.374;2022-12-20T08:15:59;1.70;99.90
8109;DHT22;4097;47.812;12.374;2022-12-20T08:18:26;1.80;99.90
8109;DHT22;4097;47.812;12.374;2022-12-20T08:20:53;1.80;99.90
8109;DHT22;4097;47.812;12.374;2022-12-20T08:23:21;1.80;99.90
8109;DHT22;4097;47.812;12.374;2022-12-20T08:25:48;1.80;99.90
8109;DHT22;4097;47.812;12.374;2022-12-20T08:28:15;1.90;99.90
8109;DHT22;4097;47.812;12.374;2022-12-20T08:30:42;1.90;99.90
8109;DHT22;4097;47.812;12.374;2022-12-20T08:33:10;2.00;99.90
8109;DHT22;4097;47.812;12.374;2022-12-20T08:35:37;2.00;99.90
8109;DHT22;4097;47.812;12.374;2022-12-20T08:38:04;2.10;99.90
8109;DHT22;4097;47.812;12.374;2022-12-20T08:40:33;2.20;99.90
8109;DHT22;4097;47.812;12.374;2022-12-20T08:43:00;2.20;99.90
8109;DHT22;4097;47.812;12.374;2022-12-20T08:45:27;2.30;99.90
8109;DHT22;4097;47.812;12.374;2022-12-20T08:47:55;2.30;99.90
8109;DHT22;4097;47.812;12.374;2022-12-20T08:50:22;2.30;99.90
8109;DHT22;4097;47.812;12.374;2022-12-20T08:52:51;2.40;99.90
8109;DHT22;4097;47.812;12.374;2022-12-20T08:55:18;2.40;99.90
8109;DHT22;4097;47.812;12.374;2022-12-20T08:57:47;2.50;99.90
8109;DHT22;4097;47.812;12.374;2022-12-20T09:00:14;2.60;99.90
8109;DHT22;4097;47.812;12.374;2022-12-20T09:02:41;2.60;99.90
8109;DHT22;4097;47.812;12.374;2022-12-20T09:05:09;2.60;99.90
8109;DHT22;4097;47.812;12.374;2022-12-20T09:07:36;2.70;99.90
8109;DHT22;4097;47.812;12.374;2022-12-20T09:10:04;2.70;99.90
8109;DHT22;4097;47.812;12.374;2022-12-20T09:12:36;2.70;99.90
8109;DHT22;4097;47.812;12.374;2022-12-20T09:15:06;2.80;99.90
8109;DHT22;4097;47.812;12.374;2022-12-20T09:17:33;2.90;99.90
8109;DHT22;4097;47.812;12.374;2022-12-20T09:20:01;2.90;99.90
8109;DHT22;4097;47.812;12.374;2022-12-20T09:22:28;2.90;99.90
8109;DHT22;4097;47.812;12.374;2022-12-20T09:24:55;2.90;99.90
8109;DHT22;4097;47.812;12.374;2022-12-20T09:27:23;2.90;99.90
8109;DHT22;4097;47.812;12.374;2022-12-20T09:29:50;3.00;99.90
8109;DHT22;4097;47.812;12.374;2022-12-20T09:32:18;3.00;99.90
8109;DHT22;4097;47.812;12.374;2022-12-20T09:34:45;3.00;99.90
8109;DHT22;4097;47.812;12.374;2022-12-20T09:37:12;3.10;99.90
8109;DHT22;4097;47.812;12.374;2022-12-20T09:39:39;3.10;99.90
8109;DHT22;4097;47.812;12.374;2022-12-20T09:42:07;3.20;99.90
8109;DHT22;4097;47.812;12.374;2022-12-20T09:44:38;3.20;99.90
8109;DHT22;4097;47.812;12.374;2022-12-20T09:47:11;3.20;99.90
8109;DHT22;4097;47.812;12.374;2022-12-20T09:49:44;3.20;99.90
8109;DHT22;4097;47.812;12.374;2022-12-20T09:52:27;3.20;99.90
8109;DHT22;4097;47.812;12.374;2022-12-20T09:55:03;3.20;99.90
8109;DHT22;4097;47.812;12.374;2022-12-20T09:57:43;3.20;99.90
8109;DHT22;4097;47.812;12.374;2022-12-20T10:00:15;3.20;99.90
8109;DHT22;4097;47.812;12.374;2022-12-20T10:02:43;3.30;99.90
8109;DHT22;4097;47.812;12.374;2022-12-20T10:05:15;3.30;99.90
8109;DHT22;4097;47.812;12.374;2022-12-20T10:07:51;3.30;99.90
8109;DHT22;4097;47.812;12.374;2022-12-20T10:10:37;3.40;99.90
8109;DHT22;4097;47.812;12.374;2022-12-20T10:13:15;3.40;99.90
8109;DHT22;4097;47.812;12.374;2022-12-20T10:15:50;3.40;99.90
8109;DHT22;4097;47.812;12.374;2022-12-20T10:18:27;3.50;99.90
8109;DHT22;4097;47.812;12.374;2022-12-20T10:21:06;3.50;99.90
8109;DHT22;4097;47.812;12.374;2022-12-20T10:23:39;3.60;99.90
8109;DHT22;4097;47.812;12.374;2022-12-20T10:26:11;3.60;99.90
8109;DHT22;4097;47.812;12.374;2022-12-20T10:28:39;3.60;99.90
8109;DHT22;4097;47.812;12.374;2022-12-20T10:31:11;3.70;99.90
8109;DHT22;4097;47.812;12.374;2022-12-20T10:33:39;3.70;99.90
8109;DHT22;4097;47.812;12.374;2022-12-20T10:36:23;3.80;99.90
8109;DHT22;4097;47.812;12.374;2022-12-20T10:38:52;3.80;99.90
8109;DHT22;4097;47.812;12.374;2022-12-20T10:41:21;3.80;99.90
8109;DHT22;4097;47.812;12.374;2022-12-20T10:43:53;3.80;99.90
8109;DHT22;4097;47.812;12.374;2022-12-20T10:46:22;3.80;99.90
8109;DHT22;4097;47.812;12.374;2022-12-20T10:49:29;3.80;99.90
8109;DHT22;4097;47.812;12.374;2022-12-20T10:51:59;3.80;99.90
8109;DHT22;4097;47.812;12.374;2022-12-20T10:54:32;3.80;99.90
8109;DHT22;4097;47.812;12.374;2022-12-20T10:57:01;3.80;99.90
8109;DHT22;4097;47.812;12.374;2022-12-20T10:59:35;3.90;99.90
8109;DHT22;4097;47.812;12.374;2022-12-20T11:02:26;3.80;99.90
8109;DHT22;4097;47.812;12.374;2022-12-20T11:04:58;3.90;99.90
8109;DHT22;4097;47.812;12.374;2022-12-20T11:07:29;3.80;99.90
8109;DHT22;4097;47.812;12.374;2022-12-20T11:09:57;3.90;99.90
8109;DHT22;4097;47.812;12.374;2022-12-20T11:12:24;3.90;99.90
8109;DHT22;4097;47.812;12.374;2022-12-20T11:15:07;3.90;99.90
8109;DHT22;4097;47.812;12.374;2022-12-20T11:17:37;4.00;99.90
8109;DHT22;4097;47.812;12.374;2022-12-20T11:20:20;4.00;99.90
8109;DHT22;4097;47.812;12.374;2022-12-20T11:22:55;4.10;99.90
8109;DHT22;4097;47.812;12.374;2022-12-20T11:25:46;4.10;99.90
8109;DHT22;4097;47.812;12.374;2022-12-20T11:28:26;4.20;99.90
8109;DHT22;4097;47.812;12.374;2022-12-20T11:31:07;4.20;99.90
8109;DHT22;4097;47.812;12.374;2022-12-20T11:33:58;4.30;99.90
8109;DHT22;4097;47.812;12.374;2022-12-20T11:36:37;4.30;99.90
8109;DHT22;4097;47.812;12.374;2022-12-20T11:39:18;4.20;99.90
8109;DHT22;4097;47.812;12.374;2022-12-20T11:41:54;4.30;99.90
8109;DHT22;4097;47.812;12.374;2022-12-20T11:44:32;4.30;99.90
8109;DHT22;4097;47.812;12.374;2022-12-20T11:47:25;4.40;99.90
8109;DHT22;4097;47.812;12.374;2022-12-20T11:50:06;4.30;99.90
8109;DHT22;4097;47.812;12.374;2022-12-20T11:52:41;4.40;99.90
8109;DHT22;4097;47.812;12.374;2022-12-20T11:55:18;4.40;99.90
8109;DHT22;4097;47.812;12.374;2022-12-20T11:57:53;4.40;99.90
8109;DHT22;4097;47.812;12.374;2022-12-20T12:00:24;4.30;99.90
8109;DHT22;4097;47.812;12.374;2022-12-20T12:02:55;4.40;99.90
8109;DHT22;4097;47.812;12.374;2022-12-20T12:05:26;4.40;99.90
8109;DHT22;4097;47.812;12.374;2022-12-20T12:07:58;4.40;99.90
8109;DHT22;4097;47.812;12.374;2022-12-20T12:10:30;4.40;99.90
8109;DHT22;4097;47.812;12.374;2022-12-20T12:13:05;4.40;99.90
8109;DHT22;4097;47.812;12.374;2022-12-20T12:15:44;4.40;99.90
8109;DHT22;4097;47.812;12.374;2022-12-20T12:18:16;4.40;99.90
8109;DHT22;4097;47.812;12.374;2022-12-20T12:20:49;4.40;99.90
8109;DHT22;4097;47.812;12.374;2022-12-20T12:23:22;4.40;99.90
8109;DHT22;4097;47.812;12.374;2022-12-20T12:25:54;4.50;99.90
8109;DHT22;4097;47.812;12.374;2022-12-20T12:28:21;4.50;99.90
8109;DHT22;4097;47.812;12.374;2022-12-20T12:30:53;4.50;99.90
8109;DHT22;4097;47.812;12.374;2022-12-20T12:33:28;4.50;99.90
8109;DHT22;4097;47.812;12.374;2022-12-20T12:39:11;4.50;99.90
8109;DHT22;4097;47.812;12.374;2022-12-20T12:42:14;4.50;99.90
8109;DHT22;4097;47.812;12.374;2022-12-20T12:44:49;4.50;99.90
8109;DHT22;4097;47.812;12.374;2022-12-20T12:47:20;4.40;99.90
8109;DHT22;4097;47.812;12.374;2022-12-20T12:49:50;4.40;99.90
8109;DHT22;4097;47.812;12.374;2022-12-20T12:52:33;4.40;99.90
8109;DHT22;4097;47.812;12.374;2022-12-20T12:55:04;4.40;99.90
8109;DHT22;4097;47.812;12.374;2022-12-20T12:57:57;4.50;99.90
8109;DHT22;4097;47.812;12.374;2022-12-20T13:00:47;4.40;99.90
8109;DHT22;4097;47.812;12.374;2022-12-20T13:03:16;4.40;99.90
8109;DHT22;4097;47.812;12.374;2022-12-20T13:09:16;4.40;99.90
8109;DHT22;4097;47.812;12.374;2022-12-20T13:11:44;4.40;99.90
8109;DHT22;4097;47.812;12.374;2022-12-20T13:14:48;4.40;99.90
8109;DHT22;4097;47.812;12.374;2022-12-20T13:17:44;4.40;99.90
8109;DHT22;4097;47.812;12.374;2022-12-20T13:20:17;4.40;99.90
8109;DHT22;4097;47.812;12.374;2022-12-20T13:23:04;4.40;99.90
8109;DHT22;4097;47.812;12.374;2022-12-20T13:25:34;4.40;99.90
8109;DHT22;4097;47.812;12.374;2022-12-20T13:28:42;4.40;99.90
8109;DHT22;4097;47.812;12.374;2022-12-20T13:31:31;4.30;99.90
8109;DHT22;4097;47.812;12.374;2022-12-20T13:34:02;4.30;99.90
8109;DHT22;4097;47.812;12.374;2022-12-20T13:36:32;4.30;99.90
8109;DHT22;4097;47.812;12.374;2022-12-20T13:39:02;4.30;99.90
8109;DHT22;4097;47.812;12.374;2022-12-20T13:41:36;4.30;99.90
8109;DHT22;4097;47.812;12.374;2022-12-20T13:44:35;4.20;99.90
8109;DHT22;4097;47.812;12.374;2022-12-20T13:50:00;4.20;99.90
8109;DHT22;4097;47.812;12.374;2022-12-20T13:52:29;4.10;99.90
8109;DHT22;4097;47.812;12.374;2022-12-20T13:54:59;4.10;99.90
8109;DHT22;4097;47.812;12.374;2022-12-20T13:57:30;4.20;99.90
8109;DHT22;4097;47.812;12.374;2022-12-20T14:00:03;4.20;99.90
8109;DHT22;4097;47.812;12.374;2022-12-20T14:02:35;4.20;99.90
8109;DHT22;4097;47.812;12.374;2022-12-20T14:05:14;4.20;99.90
8109;DHT22;4097;47.812;12.374;2022-12-20T14:07:45;4.20;99.90
8109;DHT22;4097;47.812;12.374;2022-12-20T14:10:18;4.20;99.90
8109;DHT22;4097;47.812;12.374;2022-12-20T14:12:46;4.20;99.90
8109;DHT22;4097;47.812;12.374;2022-12-20T14:15:21;4.20;99.90
8109;DHT22;4097;47.812;12.374;2022-12-20T14:17:50;4.20;99.90
8109;DHT22;4097;47.812;12.374;2022-12-20T14:20:22;4.20;99.90
8109;DHT22;4097;47.812;12.374;2022-12-20T14:22:53;4.20;99.90
8109;DHT22;4097;47.812;12.374;2022-12-20T14:25:30;4.30;99.90
8109;DHT22;4097;47.812;12.374;2022-12-20T14:27:58;4.30;99.90
8109;DHT22;4097;47.812;12.374;2022-12-20T14:30:27;4.20;99.90
8109;DHT22;4097;47.812;12.374;2022-12-20T14:32:57;4.20;99.90
8109;DHT22;4097;47.812;12.374;2022-12-20T14:35:24;4.30;99.90
8109;DHT22;4097;47.812;12.374;2022-12-20T14:37:53;4.20;99.90
8109;DHT22;4097;47.812;12.374;2022-12-20T14:40:21;4.20;99.90
8109;DHT22;4097;47.812;12.374;2022-12-20T14:42:49;4.30;99.90
8109;DHT22;4097;47.812;12.374;2022-12-20T14:45:19;4.30;99.90
8109;DHT22;4097;47.812;12.374;2022-12-20T14:47:56;4.20;99.90
8109;DHT22;4097;47.812;12.374;2022-12-20T14:50:27;4.30;99.90
8109;DHT22;4097;47.812;12.374;2022-12-20T14:52:55;4.20;99.90
8109;DHT22;4097;47.812;12.374;2022-12-20T14:55:25;4.20;99.90
8109;DHT22;4097;47.812;12.374;2022-12-20T14:57:55;4.10;99.90
8109;DHT22;4097;47.812;12.374;2022-12-20T15:00:24;4.10;99.90
8109;DHT22;4097;47.812;12.374;2022-12-20T15:03:01;4.10;99.90
8109;DHT22;4097;47.812;12.374;2022-12-20T15:05:45;4.00;99.90
8109;DHT22;4097;47.812;12.374;2022-12-20T15:08:15;4.00;99.90
8109;DHT22;4097;47.812;12.374;2022-12-20T15:13:12;3.90;99.90
8109;DHT22;4097;47.812;12.374;2022-12-20T15:15:42;3.90;99.90
8109;DHT22;4097;47.812;12.374;2022-12-20T15:18:12;3.90;99.90
8109;DHT22;4097;47.812;12.374;2022-12-20T15:20:40;3.90;99.90
8109;DHT22;4097;47.812;12.374;2022-12-20T15:23:13;3.90;99.90
8109;DHT22;4097;47.812;12.374;2022-12-20T15:25:41;3.90;99.90
8109;DHT22;4097;47.812;12.374;2022-12-20T15:28:12;3.90;99.90
8109;DHT22;4097;47.812;12.374;2022-12-20T15:30:39;3.90;99.90
8109;DHT22;4097;47.812;12.374;2022-12-20T15:33:13;3.90;99.90
8109;DHT22;4097;47.812;12.374;2022-12-20T15:35:40;3.90;99.90
8109;DHT22;4097;47.812;12.374;2022-12-20T15:38:12;3.90;99.90
8109;DHT22;4097;47.812;12.374;2022-12-20T15:40:41;3.80;99.90
8109;DHT22;4097;47.812;12.374;2022-12-20T15:43:11;3.80;99.90
8109;DHT22;4097;47.812;12.374;2022-12-20T15:45:39;3.70;99.90
8109;DHT22;4097;47.812;12.374;2022-12-20T15:48:14;3.70;99.90
8109;DHT22;4097;47.812;12.374;2022-12-20T15:50:44;3.70;99.90
8109;DHT22;4097;47.812;12.374;2022-12-20T15:53:16;3.70;99.90
8109;DHT22;4097;47.812;12.374;2022-12-20T15:55:48;3.60;99.90
8109;DHT22;4097;47.812;12.374;2022-12-20T15:58:19;3.70;99.90
8109;DHT22;4097;47.812;12.374;2022-12-20T16:00:46;3.60;99.90
8109;DHT22;4097;47.812;12.374;2022-12-20T16:03:17;3.60;99.90
8109;DHT22;4097;47.812;12.374;2022-12-20T16:05:45;3.60;99.90
8109;DHT22;4097;47.812;12.374;2022-12-20T16:08:13;3.60;99.90
8109;DHT22;4097;47.812;12.374;2022-12-20T16:10:41;3.60;99.90
8109;DHT22;4097;47.812;12.374;2022-12-20T16:13:13;3.60;99.90
8109;DHT22;4097;47.812;12.374;2022-12-20T16:15:41;3.60;99.90
8109;DHT22;4097;47.812;12.374;2022-12-20T16:18:08;3.60;99.90
8109;DHT22;4097;47.812;12.374;2022-12-20T16:20:36;3.60;99.90
8109;DHT22;4097;47.812;12.374;2022-12-20T16:23:07;3.50;99.90
8109;DHT22;4097;47.812;12.374;2022-12-20T16:25:37;3.60;99.90
8109;DHT22;4097;47.812;12.374;2022-12-20T16:28:04;3.60;99.90
8109;DHT22;4097;47.812;12.374;2022-12-20T16:30:31;3.50;99.90
8109;DHT22;4097;47.812;12.374;2022-12-20T16:32:59;3.50;99.90
8109;DHT22;4097;47.812;12.374;2022-12-20T16:35:30;3.50;99.90
8109;DHT22;4097;47.812;12.374;2022-12-20T16:37:59;3.50;99.90
8109;DHT22;4097;47.812;12.374;2022-12-20T16:40:28;3.40;99.90
8109;DHT22;4097;47.812;12.374;2022-12-20T16:42:56;3.40;99.90
8109;DHT22;4097;47.812;12.374;2022-12-20T16:45:25;3.40;99.90
8109;DHT22;4097;47.812;12.374;2022-12-20T16:47:54;3.40;99.90
8109;DHT22;4097;47.812;12.374;2022-12-20T16:50:23;3.40;99.90
8109;DHT22;4097;47.812;12.374;2022-12-20T16:52:50;3.40;99.90
8109;DHT22;4097;47.812;12.374;2022-12-20T16:55:21;3.40;99.90